createdAt,value
2022-09-15T00:02:46.650Z,0
2022-09-15T00:07:58.846Z,0
2022-09-15T00:13:11.080Z,0
2022-09-15T00:18:23.527Z,0
2022-09-15T00:23:35.870Z,0
2022-09-15T00:28:48.211Z,0
2022-09-15T00:34:00.575Z,0
2022-09-15T00:39:12.799Z,0
2022-09-15T00:44:25.226Z,0
2022-09-15T00:49:37.773Z,0
2022-09-15T00:54:50.261Z,0
2022-09-15T01:00:02.559Z,0
2022-09-15T01:05:15.151Z,0
2022-09-15T01:10:27.762Z,0
2022-09-15T01:15:40.073Z,0
2022-09-15T01:20:52.524Z,0
2022-09-15T01:26:04.788Z,0
2022-09-15T01:31:17.524Z,0
2022-09-15T01:41:41.885Z,0
2022-09-15T01:46:54.211Z,0
2022-09-15T01:52:06.630Z,0
2022-09-15T01:57:18.850Z,0
2022-09-15T02:02:31.140Z,0
2022-09-15T02:07:43.620Z,0
2022-09-15T02:12:56.019Z,0
2022-09-15T02:18:08.667Z,0
2022-09-15T02:23:21.047Z,0
2022-09-15T02:28:33.440Z,0
2022-09-15T02:33:45.865Z,0
2022-09-15T02:38:58.404Z,0
2022-09-15T02:44:10.715Z,0
2022-09-15T02:49:23.135Z,0
2022-09-15T02:54:35.271Z,0
2022-09-15T02:59:47.755Z,0
2022-09-15T03:05:00.104Z,0
2022-09-15T03:10:12.746Z,0
2022-09-15T03:15:25.145Z,0
2022-09-15T03:20:37.371Z,0
2022-09-15T03:25:49.930Z,0
2022-09-15T03:31:02.450Z,0
2022-09-15T03:36:14.785Z,0
2022-09-15T03:41:27.231Z,0
2022-09-15T03:46:39.610Z,0
2022-09-15T03:51:51.991Z,0
2022-09-15T03:57:04.411Z,0
2022-09-15T04:02:16.670Z,0
2022-09-15T04:07:29.108Z,0
2022-09-15T04:12:41.273Z,0
2022-09-15T04:17:53.444Z,0
2022-09-15T04:23:05.749Z,0
2022-09-15T04:33:30.611Z,1021
2022-09-15T04:38:43.077Z,2074
2022-09-15T04:43:55.466Z,3111
2022-09-15T04:49:08.022Z,3926
2022-09-15T04:54:20.498Z,4459
2022-09-15T04:59:32.823Z,4823
2022-09-15T05:04:45.072Z,5011
2022-09-15T05:09:57.689Z,5108
2022-09-15T05:15:10.152Z,5175
2022-09-15T05:20:22.642Z,5069
2022-09-15T05:25:35.072Z,5175
2022-09-15T05:30:47.915Z,5060
2022-09-15T05:36:00.528Z,5124
2022-09-15T05:41:13.169Z,5135
2022-09-15T05:46:25.528Z,5119
2022-09-15T05:51:38.014Z,5149
2022-09-15T05:56:50.577Z,5181
2022-09-15T06:02:02.944Z,5124
2022-09-15T06:07:15.395Z,5179
2022-09-15T06:12:28.153Z,5145
2022-09-15T06:17:40.484Z,5179
2022-09-15T06:22:52.892Z,5133
2022-09-15T06:28:05.305Z,5106
2022-09-15T06:33:17.484Z,5154
2022-09-15T06:43:42.264Z,5076
2022-09-15T06:48:54.697Z,5092
2022-09-15T06:54:06.910Z,5161
2022-09-15T06:59:19.372Z,5186
2022-09-15T07:04:31.630Z,5186
2022-09-15T07:09:47.189Z,5161
2022-09-15T07:14:56.464Z,5154
2022-09-15T07:20:08.980Z,5106
2022-09-15T07:25:21.580Z,5186
2022-09-15T07:30:33.732Z,5142
2022-09-15T07:35:46.095Z,5186
2022-09-15T07:40:58.338Z,5152
2022-09-15T07:46:10.840Z,5188
2022-09-15T07:51:23.283Z,5186
2022-09-15T07:56:35.831Z,5147
2022-09-15T08:01:47.986Z,5188
2022-09-15T08:07:00.182Z,5186
2022-09-15T08:12:12.689Z,5158
2022-09-15T08:17:25.042Z,5188
2022-09-15T08:22:37.587Z,5188
2022-09-15T08:27:49.746Z,5188
2022-09-15T08:33:02.039Z,5191
2022-09-15T08:38:14.590Z,5163
2022-09-15T08:43:26.887Z,5191
2022-09-15T08:48:42.374Z,5191
2022-09-15T08:53:54.995Z,5193
2022-09-15T09:04:19.417Z,5191
2022-09-15T09:09:31.898Z,5188
2022-09-15T09:14:44.265Z,5191
2022-09-15T09:19:56.710Z,5191
2022-09-15T09:25:26.068Z,5165
2022-09-15T09:30:21.524Z,5193
2022-09-15T09:35:33.885Z,5195
2022-09-15T09:40:46.281Z,5195
2022-09-15T09:45:58.547Z,5195
2022-09-15T09:51:11.082Z,5149
2022-09-15T09:56:23.579Z,5179
2022-09-15T10:01:36.350Z,5186
2022-09-15T10:06:48.755Z,5207
2022-09-15T10:12:01.060Z,5209
2022-09-15T10:27:38.436Z,5214
2022-09-15T10:32:50.887Z,5211
2022-09-15T10:38:03.346Z,5211
2022-09-15T10:43:15.723Z,5214
2022-09-15T10:48:28.015Z,5214
2022-09-15T10:53:40.374Z,5202
2022-09-15T10:58:53.060Z,5165
2022-09-15T11:04:05.238Z,5198
2022-09-15T11:09:17.857Z,5211
2022-09-15T11:14:30.162Z,5211
2022-09-15T11:19:42.574Z,5211
2022-09-15T11:24:55.018Z,5202
2022-09-15T11:35:22.631Z,5198
2022-09-15T11:40:34.899Z,5211
2022-09-15T11:45:47.207Z,5191
2022-09-15T11:50:59.721Z,5191
2022-09-15T11:56:12.010Z,5200
2022-09-15T12:01:24.351Z,5211
2022-09-15T12:06:36.798Z,5193
2022-09-15T12:11:49.205Z,5175
2022-09-15T12:17:01.313Z,5209
2022-09-15T12:22:13.872Z,5195
2022-09-15T12:27:26.021Z,5195
2022-09-15T12:32:38.563Z,5175
2022-09-15T12:37:51.465Z,5200
2022-09-15T12:43:03.945Z,5218
2022-09-15T12:48:16.265Z,5193
2022-09-15T12:53:28.464Z,5198
2022-09-15T12:58:41.003Z,5209
2022-09-15T13:03:53.585Z,5223
2022-09-15T13:09:06.035Z,5195
2022-09-15T13:14:18.301Z,5216
2022-09-15T13:19:30.651Z,5188
2022-09-15T13:24:43.158Z,5225
2022-09-15T13:29:55.557Z,5221
2022-09-15T13:35:14.875Z,5211
2022-09-15T13:40:20.258Z,5204
2022-09-15T13:45:32.398Z,5218
2022-09-15T13:50:44.745Z,5202
2022-09-15T13:55:57.030Z,5218
2022-09-15T14:01:09.160Z,5170
2022-09-15T14:06:21.437Z,5193
2022-09-15T14:11:40.237Z,5214
2022-09-15T14:16:52.859Z,5225
2022-09-15T14:22:05.334Z,5209
2022-09-15T14:32:30.040Z,5207
2022-09-15T14:37:42.251Z,5175
2022-09-15T14:42:54.661Z,5191
2022-09-15T14:48:07.068Z,5209
2022-09-15T14:53:19.739Z,5184
2022-09-15T14:58:32.006Z,5186
2022-09-15T15:03:44.371Z,5193
2022-09-15T15:08:56.804Z,5198
2022-09-15T15:14:09.267Z,5195
2022-09-15T15:19:21.554Z,5177
2022-09-15T15:24:34.084Z,5158
2022-09-15T15:29:46.533Z,5138
2022-09-15T15:34:58.843Z,4832
2022-09-15T15:45:23.311Z,4880
2022-09-15T15:55:47.989Z,5152
2022-09-15T16:01:00.470Z,5181
2022-09-15T16:06:12.772Z,5161
2022-09-15T16:11:25.108Z,5181
2022-09-15T16:16:37.420Z,5163
2022-09-15T16:21:49.911Z,5175
2022-09-15T16:27:03.052Z,4991
2022-09-15T16:32:15.484Z,5156
2022-09-15T16:37:27.930Z,5168
2022-09-15T16:42:40.164Z,5179
2022-09-15T16:47:52.761Z,4915
2022-09-15T16:53:05.067Z,4248
2022-09-15T16:58:17.542Z,3861
2022-09-15T17:03:30.151Z,5131
2022-09-15T17:08:42.707Z,4043
2022-09-15T17:13:54.983Z,2861
2022-09-15T17:19:07.200Z,1867
2022-09-15T17:24:19.849Z,1306
2022-09-15T17:29:32.000Z,1030
2022-09-15T17:34:44.397Z,768
2022-09-15T17:39:58.883Z,416
2022-09-15T17:45:08.979Z,0
2022-09-15T17:50:21.675Z,0
2022-09-15T17:55:34.334Z,0
2022-09-15T18:00:46.518Z,0
2022-09-15T18:05:59.049Z,0
2022-09-15T18:11:11.369Z,0
2022-09-15T18:16:23.765Z,0
2022-09-15T18:21:35.925Z,0
2022-09-15T18:26:48.173Z,0
2022-09-15T18:32:00.368Z,0
2022-09-15T18:37:12.796Z,0
2022-09-15T18:42:26.221Z,0
2022-09-15T18:47:37.004Z,0
2022-09-15T18:52:49.448Z,0
2022-09-15T18:58:01.755Z,0
2022-09-15T19:03:14.237Z,0
2022-09-15T19:08:26.451Z,0
2022-09-15T19:13:38.868Z,0
2022-09-15T19:18:51.128Z,0
2022-09-15T19:24:03.450Z,0
2022-09-15T19:29:16.037Z,0
2022-09-15T19:34:28.525Z,0
2022-09-15T19:39:40.950Z,0
2022-09-15T19:44:53.195Z,0
2022-09-15T19:50:05.518Z,0
2022-09-15T19:55:17.920Z,0
2022-09-15T20:00:44.020Z,0
2022-09-15T20:05:56.499Z,0
2022-09-15T20:16:21.077Z,0
2022-09-15T20:21:49.086Z,0
2022-09-15T20:26:46.010Z,0
2022-09-15T20:32:00.940Z,0
2022-09-15T20:37:13.303Z,0
2022-09-15T20:42:25.614Z,0
2022-09-15T20:47:38.022Z,0
2022-09-15T20:58:02.774Z,0
2022-09-15T21:03:15.167Z,0
2022-09-15T21:08:27.665Z,0
2022-09-15T21:13:40.013Z,0
2022-09-15T21:24:07.923Z,0
2022-09-15T21:29:20.238Z,0
2022-09-15T21:34:32.552Z,0
2022-09-15T21:44:57.419Z,0
2022-09-15T21:50:09.741Z,0
2022-09-15T21:55:22.059Z,0
2022-09-15T22:00:34.165Z,0
2022-09-15T22:05:46.611Z,0
2022-09-15T22:10:58.816Z,0
2022-09-15T22:16:11.167Z,0
2022-09-15T22:21:23.399Z,0
2022-09-15T22:26:35.401Z,0
2022-09-15T22:31:47.965Z,0
2022-09-15T22:37:00.281Z,0
2022-09-15T22:42:12.484Z,0
2022-09-15T22:47:24.788Z,0
2022-09-15T22:52:37.140Z,0
2022-09-15T22:57:49.515Z,0
2022-09-15T23:03:01.571Z,0
2022-09-15T23:08:13.992Z,0
2022-09-15T23:13:26.133Z,0
2022-09-15T23:18:38.535Z,0
2022-09-15T23:23:50.760Z,0
2022-09-15T23:29:03.023Z,0
2022-09-15T23:34:15.400Z,0
2022-09-15T23:39:27.839Z,0
2022-09-15T23:44:40.133Z,0
2022-09-15T23:49:52.432Z,0
2022-09-15T23:55:04.805Z,0
